createdAt,value
2018-11-13T00:00:04.267Z,27.53
2018-11-13T00:02:32.384Z,29.33
2018-11-13T00:05:00.543Z,28.90
2018-11-13T00:07:28.614Z,27.20
2018-11-13T00:09:56.699Z,28.90
2018-11-13T00:12:24.926Z,28.77
2018-11-13T00:14:53.004Z,28.87
2018-11-13T00:17:21.183Z,30.37
2018-11-13T00:19:49.263Z,30.83
2018-11-13T00:22:17.511Z,29.67
2018-11-13T00:24:45.625Z,30.80
2018-11-13T00:27:13.683Z,32.63
2018-11-13T00:29:41.760Z,30.30
2018-11-13T00:32:09.842Z,29.03
2018-11-13T00:34:38.028Z,28.17
2018-11-13T00:37:06.143Z,30.83
2018-11-13T00:39:34.382Z,28.30
2018-11-13T00:42:02.542Z,30.20
2018-11-13T00:44:30.656Z,28.57
2018-11-13T00:46:58.707Z,26.10
2018-11-13T00:49:27.108Z,27.30
2018-11-13T00:51:54.870Z,30.03
2018-11-13T00:54:22.961Z,30.00
2018-11-13T00:56:51.148Z,29.17
2018-11-13T00:59:19.263Z,27.60
2018-11-13T01:01:47.366Z,32.73
2018-11-13T01:04:15.365Z,29.93
2018-11-13T01:06:43.477Z,30.27
2018-11-13T01:09:11.598Z,29.87
2018-11-13T01:11:39.791Z,28.47
2018-11-13T01:14:08.308Z,29.53
2018-11-13T01:16:36.585Z,29.83
2018-11-13T01:19:04.843Z,30.33
2018-11-13T01:21:32.932Z,28.77
2018-11-13T01:24:01.195Z,30.43
2018-11-13T01:26:29.107Z,30.87
2018-11-13T01:28:57.245Z,28.20
2018-11-13T01:31:25.338Z,30.60
2018-11-13T01:33:53.407Z,32.30
2018-11-13T01:36:21.542Z,30.53
2018-11-13T01:38:49.623Z,29.23
2018-11-13T01:41:17.707Z,33.00
2018-11-13T01:43:45.788Z,30.87
2018-11-13T01:46:13.900Z,29.07
2018-11-13T01:48:41.970Z,28.90
2018-11-13T01:51:10.044Z,30.10
2018-11-13T01:53:38.118Z,30.57
2018-11-13T01:56:06.187Z,26.20
2018-11-13T01:58:34.410Z,27.17
2018-11-13T02:01:02.400Z,28.77
2018-11-13T02:03:30.465Z,28.00
2018-11-13T02:05:58.636Z,28.67
2018-11-13T02:08:26.725Z,28.30
2018-11-13T02:10:54.817Z,29.97
2018-11-13T02:13:22.880Z,28.10
2018-11-13T02:15:50.949Z,31.50
2018-11-13T02:18:19.029Z,31.93
2018-11-13T02:20:47.112Z,30.67
2018-11-13T02:23:15.179Z,29.40
2018-11-13T02:25:43.245Z,29.60
2018-11-13T02:28:11.332Z,32.87
2018-11-13T02:30:39.396Z,29.90
2018-11-13T02:33:07.479Z,30.13
2018-11-13T02:35:35.565Z,26.77
2018-11-13T02:38:03.688Z,29.97
2018-11-13T02:40:31.727Z,28.07
2018-11-13T02:42:59.779Z,29.13
2018-11-13T02:45:27.856Z,28.27
2018-11-13T02:47:55.929Z,28.00
2018-11-13T02:50:24.011Z,29.07
2018-11-13T02:52:52.072Z,28.40
2018-11-13T02:55:20.158Z,27.10
2018-11-13T02:57:48.364Z,27.63
2018-11-13T03:00:19.098Z,27.53
2018-11-13T03:02:47.262Z,27.17
2018-11-13T03:05:16.665Z,28.40
2018-11-13T03:07:44.828Z,28.13
2018-11-13T03:10:13.912Z,28.13
2018-11-13T03:12:42.105Z,26.57
2018-11-13T03:15:11.604Z,29.07
2018-11-13T03:17:40.272Z,25.70
2018-11-13T03:20:11.325Z,26.27
2018-11-13T03:22:39.708Z,26.70
2018-11-13T03:25:09.403Z,25.53
2018-11-13T03:27:38.051Z,24.40
2018-11-13T03:30:09.937Z,27.77
2018-11-13T03:32:38.067Z,25.30
2018-11-13T03:35:06.313Z,25.60
2018-11-13T03:37:34.501Z,26.70
2018-11-13T03:40:02.689Z,26.03
2018-11-13T03:42:30.848Z,24.93
2018-11-13T03:44:59.113Z,24.40
2018-11-13T03:47:27.289Z,26.30
2018-11-13T03:49:55.440Z,23.80
2018-11-13T03:52:23.560Z,25.60
2018-11-13T03:54:51.728Z,25.93
2018-11-13T03:57:19.907Z,24.53
2018-11-13T03:59:48.154Z,27.27
2018-11-13T04:02:16.292Z,26.60
2018-11-13T04:04:45.723Z,28.07
2018-11-13T04:07:13.928Z,26.37
2018-11-13T04:09:42.119Z,27.13
2018-11-13T04:12:10.247Z,25.23
2018-11-13T04:14:38.341Z,26.53
2018-11-13T04:17:06.513Z,28.30
2018-11-13T04:19:34.695Z,26.97
2018-11-13T04:22:04.786Z,27.10
2018-11-13T04:24:33.428Z,28.73
2018-11-13T04:27:02.309Z,27.00
2018-11-13T04:29:30.723Z,27.03
2018-11-13T04:31:58.853Z,26.83
2018-11-13T04:34:26.920Z,29.63
2018-11-13T04:36:55.005Z,28.20
2018-11-13T04:39:23.078Z,29.23
2018-11-13T04:41:51.127Z,26.37
2018-11-13T04:44:19.251Z,29.50
2018-11-13T04:46:47.331Z,28.10
2018-11-13T04:49:15.440Z,28.53
2018-11-13T04:51:43.599Z,28.73
2018-11-13T04:54:11.714Z,25.00
2018-11-13T04:56:39.787Z,27.77
2018-11-13T04:59:07.963Z,28.10
2018-11-13T05:01:36.138Z,27.20
2018-11-13T05:04:04.744Z,26.93
2018-11-13T05:06:32.820Z,27.93
2018-11-13T05:09:00.908Z,31.90
2018-11-13T05:11:28.986Z,29.30
2018-11-13T05:13:57.419Z,30.47
2018-11-13T05:16:25.471Z,29.03
2018-11-13T05:18:53.553Z,30.60
2018-11-13T05:21:21.896Z,29.07
2018-11-13T05:23:50.085Z,30.30
2018-11-13T05:26:18.259Z,28.30
2018-11-13T05:28:46.540Z,30.70
2018-11-13T05:31:14.759Z,33.20
2018-11-13T05:33:42.878Z,28.90
2018-11-13T05:36:10.960Z,30.73
2018-11-13T05:38:39.032Z,28.73
2018-11-13T05:41:07.130Z,30.07
2018-11-13T05:43:35.192Z,28.33
2018-11-13T05:46:03.249Z,30.60
2018-11-13T05:48:31.368Z,32.10
2018-11-13T05:50:59.642Z,28.30
2018-11-13T05:53:27.739Z,28.97
2018-11-13T05:55:55.818Z,29.33
2018-11-13T05:58:23.901Z,29.47
2018-11-13T06:00:51.978Z,32.47
2018-11-13T06:03:20.036Z,28.73
2018-11-13T06:05:48.111Z,28.20
2018-11-13T06:08:18.816Z,27.10
2018-11-13T06:10:47.009Z,28.60
2018-11-13T06:13:15.079Z,26.47
2018-11-13T06:15:43.151Z,29.70
2018-11-13T06:18:11.264Z,31.27
2018-11-13T06:20:39.377Z,30.10
2018-11-13T06:23:07.501Z,27.43
2018-11-13T06:25:35.505Z,30.47
2018-11-13T06:28:03.604Z,30.40
2018-11-13T06:30:31.688Z,30.20
2018-11-13T06:32:59.771Z,30.87
2018-11-13T06:35:27.819Z,27.40
2018-11-13T06:37:55.904Z,29.60
2018-11-13T06:40:23.945Z,30.40
2018-11-13T06:42:52.043Z,32.30
2018-11-13T06:45:22.159Z,29.17
2018-11-13T06:47:50.500Z,27.97
2018-11-13T06:50:18.601Z,29.37
2018-11-13T06:52:47.399Z,28.03
2018-11-13T06:55:46.672Z,31.07
2018-11-13T06:58:14.836Z,29.40
2018-11-13T07:00:42.943Z,30.13
2018-11-13T07:03:11.016Z,30.13
2018-11-13T07:05:39.076Z,30.30
2018-11-13T07:08:07.193Z,28.40
2018-11-13T07:10:35.251Z,29.17
2018-11-13T07:13:03.343Z,29.47
2018-11-13T07:15:32.001Z,28.70
2018-11-13T07:18:01.407Z,29.83
2018-11-13T07:20:30.776Z,28.83
2018-11-13T07:22:58.843Z,28.67
2018-11-13T07:25:26.988Z,29.93
2018-11-13T07:27:55.127Z,29.67
2018-11-13T07:30:23.907Z,28.70
2018-11-13T07:32:52.023Z,30.53
2018-11-13T07:35:20.809Z,30.63
2018-11-13T07:37:50.579Z,30.27
2018-11-13T07:40:18.716Z,30.10
2018-11-13T07:42:46.795Z,30.70
2018-11-13T07:45:15.293Z,28.00
2018-11-13T07:47:45.601Z,26.10
2018-11-13T07:50:14.035Z,29.57
2018-11-13T07:52:42.120Z,28.00
2018-11-13T07:55:11.059Z,29.40
2018-11-13T07:57:39.149Z,30.90
2018-11-13T08:00:09.556Z,29.30
2018-11-13T08:02:37.616Z,30.27
2018-11-13T08:05:06.468Z,28.93
2018-11-13T08:07:34.543Z,28.20
2018-11-13T08:10:02.667Z,29.00
2018-11-13T08:12:30.776Z,31.33
2018-11-13T08:14:58.832Z,30.27
2018-11-13T08:17:26.891Z,27.80
2018-11-13T08:19:54.965Z,30.27
2018-11-13T08:22:23.362Z,29.30
2018-11-13T08:24:52.120Z,29.07
2018-11-13T08:27:20.191Z,30.67
2018-11-13T08:29:48.263Z,30.80
2018-11-13T08:32:16.320Z,28.53
2018-11-13T08:34:44.384Z,28.60
2018-11-13T08:37:12.444Z,30.33
2018-11-13T08:39:40.521Z,28.77
2018-11-13T08:42:08.734Z,28.53
2018-11-13T08:44:36.857Z,30.30
2018-11-13T08:47:05.112Z,28.63
2018-11-13T08:49:33.192Z,28.17
2018-11-13T08:52:01.546Z,31.00
2018-11-13T08:54:29.624Z,29.77
2018-11-13T08:56:57.716Z,27.67
2018-11-13T08:59:25.817Z,36.40
2018-11-13T09:01:53.884Z,29.93
2018-11-13T09:04:21.956Z,28.57
2018-11-13T09:06:50.064Z,29.83
2018-11-13T09:09:19.334Z,29.67
2018-11-13T09:11:47.498Z,31.00
2018-11-13T09:14:15.660Z,29.17
2018-11-13T09:16:43.855Z,30.27
2018-11-13T09:19:12.293Z,29.23
2018-11-13T09:21:40.608Z,27.90
2018-11-13T09:24:08.714Z,30.67
2018-11-13T09:26:36.817Z,30.00
2018-11-13T09:29:05.024Z,28.33
2018-11-13T09:31:33.373Z,28.00
2018-11-13T09:34:01.610Z,28.17
2018-11-13T09:36:29.775Z,27.67
2018-11-13T09:38:57.956Z,31.67
2018-11-13T09:41:26.284Z,30.17
2018-11-13T09:43:54.463Z,29.30
2018-11-13T09:46:22.539Z,28.97
2018-11-13T09:48:50.803Z,28.83
2018-11-13T09:51:19.464Z,29.73
2018-11-13T09:53:47.965Z,28.37
2018-11-13T09:56:16.255Z,27.10
2018-11-13T09:58:44.392Z,28.10
2018-11-13T10:01:12.716Z,28.63
2018-11-13T10:03:41.029Z,26.70
2018-11-13T10:06:08.668Z,26.40
2018-11-13T10:08:36.902Z,25.83
2018-11-13T10:11:05.046Z,26.23
2018-11-13T10:13:33.128Z,27.53
2018-11-13T10:16:01.279Z,27.13
2018-11-13T10:18:29.595Z,28.93
2018-11-13T10:20:58.044Z,31.27
2018-11-13T10:23:26.263Z,26.53
2018-11-13T10:25:54.422Z,27.27
2018-11-13T10:28:22.537Z,27.60
2018-11-13T10:30:50.654Z,27.37
2018-11-13T10:33:18.744Z,26.17
2018-11-13T10:35:46.885Z,25.30
2018-11-13T10:38:15.078Z,25.83
2018-11-13T10:40:43.384Z,27.30
2018-11-13T10:43:11.376Z,26.90
2018-11-13T10:45:39.471Z,30.87
2018-11-13T10:48:07.559Z,27.40
2018-11-13T10:50:35.670Z,32.87
2018-11-13T10:53:03.812Z,27.00
2018-11-13T10:55:31.976Z,27.90
2018-11-13T10:58:00.136Z,28.30
2018-11-13T11:00:32.487Z,28.07
2018-11-13T11:03:13.555Z,26.37
2018-11-13T11:05:41.687Z,28.03
2018-11-13T11:08:09.852Z,26.33
2018-11-13T11:10:38.072Z,26.87
2018-11-13T11:13:06.369Z,27.40
2018-11-13T11:15:34.267Z,28.73
2018-11-13T11:18:02.449Z,27.40
2018-11-13T11:20:30.722Z,27.73
2018-11-13T11:22:59.994Z,26.50
2018-11-13T11:25:28.164Z,26.83
2018-11-13T11:27:56.171Z,28.97
2018-11-13T11:30:24.219Z,33.17
2018-11-13T11:32:52.291Z,26.27
2018-11-13T11:35:20.370Z,26.17
2018-11-13T11:37:48.453Z,28.47
2018-11-13T11:40:16.576Z,32.33
2018-11-13T11:42:44.620Z,28.10
2018-11-13T11:45:13.780Z,28.40
2018-11-13T11:47:41.878Z,26.80
2018-11-13T11:50:10.992Z,27.00
2018-11-13T11:52:39.123Z,26.77
2018-11-13T11:55:07.501Z,25.13
2018-11-13T11:57:35.614Z,26.13
2018-11-13T12:00:04.308Z,26.97
2018-11-13T12:02:32.403Z,24.37
2018-11-13T12:05:00.466Z,26.80
2018-11-13T12:07:28.520Z,23.40
2018-11-13T12:09:56.595Z,27.23
2018-11-13T12:12:24.759Z,27.00
2018-11-13T12:14:52.816Z,26.73
2018-11-13T12:17:20.891Z,28.17
2018-11-13T12:19:48.976Z,29.77
2018-11-13T12:22:17.032Z,26.93
2018-11-13T12:24:45.119Z,28.20
2018-11-13T12:27:13.190Z,24.73
2018-11-13T12:29:41.400Z,28.30
2018-11-13T12:32:09.708Z,25.00
2018-11-13T12:34:37.879Z,28.17
2018-11-13T12:37:05.889Z,23.77
2018-11-13T12:39:33.984Z,26.63
2018-11-13T12:42:02.276Z,26.10
2018-11-13T12:44:30.328Z,20.27
2018-11-13T12:46:58.422Z,24.33
2018-11-13T12:49:26.536Z,17.77
2018-11-13T12:52:00.074Z,15.43
2018-11-13T12:54:28.140Z,15.60
2018-11-13T12:56:56.201Z,14.87
2018-11-13T12:59:24.269Z,14.27
2018-11-13T13:01:53.378Z,16.57
2018-11-13T13:04:20.505Z,13.60
2018-11-13T13:06:48.621Z,15.00
2018-11-13T13:09:16.776Z,17.10
2018-11-13T13:11:44.868Z,15.07
2018-11-13T13:14:14.052Z,15.83
2018-11-13T13:16:42.168Z,15.40
2018-11-13T13:20:34.784Z,16.00
2018-11-13T13:23:02.877Z,15.30
2018-11-13T13:25:31.006Z,16.53
2018-11-13T13:27:59.062Z,15.37
2018-11-13T13:30:27.213Z,15.83
2018-11-13T13:32:55.276Z,15.00
2018-11-13T13:35:39.138Z,14.90
2018-11-13T13:38:07.840Z,14.00
2018-11-13T13:40:36.436Z,14.83
2018-11-13T13:43:04.801Z,14.50
2018-11-13T13:45:32.950Z,15.80
2018-11-13T13:48:01.057Z,14.40
2018-11-13T13:50:29.140Z,16.70
2018-11-13T13:52:57.483Z,16.90
2018-11-13T13:55:26.945Z,16.10
2018-11-13T13:57:55.048Z,17.43
2018-11-13T14:00:23.277Z,14.20
2018-11-13T14:02:51.241Z,19.80
2018-11-13T14:05:19.891Z,15.90
2018-11-13T14:07:47.986Z,16.53
2018-11-13T14:10:16.071Z,17.63
2018-11-13T14:12:44.155Z,16.40
2018-11-13T14:15:13.138Z,15.60
2018-11-13T14:17:41.542Z,19.90
2018-11-13T14:20:12.875Z,16.17
2018-11-13T14:22:41.140Z,15.37
2018-11-13T14:25:09.774Z,15.83
2018-11-13T14:27:38.161Z,16.10
2018-11-13T14:30:24.737Z,17.63
2018-11-13T14:32:53.673Z,16.60
2018-11-13T14:35:21.859Z,17.10
2018-11-13T14:37:50.268Z,16.63
2018-11-13T14:40:21.914Z,16.70
2018-11-13T14:42:50.211Z,18.30
2018-11-13T14:45:19.190Z,16.43
2018-11-13T14:47:47.944Z,17.07
2018-11-13T14:50:17.345Z,18.13
2018-11-13T14:52:45.943Z,16.63
2018-11-13T14:55:16.651Z,15.80
2018-11-13T14:57:45.142Z,17.20
2018-11-13T15:00:16.720Z,17.73
2018-11-13T15:02:45.171Z,15.87
2018-11-13T15:05:14.335Z,17.87
2018-11-13T15:07:43.359Z,17.67
2018-11-13T15:10:14.260Z,18.60
2018-11-13T15:12:42.512Z,17.10
2018-11-13T15:15:10.946Z,20.00
2018-11-13T15:17:39.496Z,17.10
2018-11-13T15:20:12.187Z,21.47
2018-11-13T15:22:40.688Z,17.40
2018-11-13T15:25:11.007Z,16.67
2018-11-13T15:27:39.063Z,16.47
2018-11-13T15:30:15.662Z,17.03
2018-11-13T15:32:44.784Z,17.30
2018-11-13T15:35:13.504Z,16.43
2018-11-13T15:37:42.229Z,15.67
2018-11-13T15:40:12.669Z,16.83
2018-11-13T15:42:41.591Z,16.60
2018-11-13T15:45:10.479Z,15.97
2018-11-13T15:47:39.468Z,16.97
2018-11-13T15:50:11.288Z,19.10
2018-11-13T15:52:39.376Z,17.27
2018-11-13T15:55:08.712Z,15.87
2018-11-13T15:57:37.519Z,16.77
2018-11-13T16:00:10.241Z,16.23
2018-11-13T16:02:38.525Z,16.10
2018-11-13T16:05:19.408Z,16.30
2018-11-13T16:07:47.580Z,16.67
2018-11-13T16:10:15.776Z,16.60
2018-11-13T16:12:44.092Z,16.53
2018-11-13T16:15:12.213Z,16.87
2018-11-13T16:17:40.378Z,20.00
2018-11-13T16:20:08.942Z,16.30
2018-11-13T16:22:37.444Z,17.23
2018-11-13T16:25:06.271Z,17.00
2018-11-13T16:27:34.414Z,15.90
2018-11-13T16:30:02.664Z,18.17
2018-11-13T16:32:30.852Z,19.23
2018-11-13T16:34:58.932Z,16.57
2018-11-13T16:37:27.080Z,16.53
2018-11-13T16:39:55.158Z,17.40
2018-11-13T16:42:23.219Z,17.70
2018-11-13T16:44:52.181Z,17.50
2018-11-13T16:47:19.455Z,17.50
2018-11-13T16:49:47.571Z,16.50
2018-11-13T16:52:15.672Z,16.77
2018-11-13T16:54:49.612Z,16.47
2018-11-13T16:57:18.232Z,18.27
2018-11-13T17:06:48.858Z,16.60
2018-11-13T17:09:16.893Z,16.50
2018-11-13T17:11:45.110Z,16.63
2018-11-13T17:14:13.167Z,16.70
2018-11-13T17:16:41.249Z,17.37
2018-11-13T17:19:09.378Z,17.20
2018-11-13T17:21:37.489Z,17.03
2018-11-13T17:24:05.657Z,16.27
2018-11-13T17:26:33.940Z,16.00
2018-11-13T17:29:02.044Z,16.67
2018-11-13T17:31:30.348Z,16.13
2018-11-13T17:33:58.397Z,17.40
2018-11-13T17:36:26.560Z,16.47
2018-11-13T17:38:54.715Z,17.17
2018-11-13T17:41:23.080Z,16.77
2018-11-13T17:43:51.312Z,16.97
2018-11-13T17:46:19.404Z,17.07
2018-11-13T17:48:47.695Z,16.20
2018-11-13T17:51:15.865Z,17.13
2018-11-13T17:53:43.976Z,17.07
2018-11-13T17:56:12.107Z,15.80
2018-11-13T17:58:40.274Z,16.30
2018-11-13T18:01:08.434Z,16.23
2018-11-13T18:03:36.536Z,22.87
2018-11-13T18:06:04.776Z,17.20
2018-11-13T18:08:32.884Z,16.57
2018-11-13T18:11:01.156Z,16.03
2018-11-13T18:13:29.270Z,15.87
2018-11-13T18:15:57.594Z,16.40
2018-11-13T18:18:25.727Z,16.40
2018-11-13T18:20:53.846Z,16.50
2018-11-13T18:23:21.959Z,16.33
2018-11-13T18:25:50.061Z,17.37
2018-11-13T18:28:18.382Z,17.57
2018-11-13T18:30:46.349Z,17.30
2018-11-13T18:33:14.566Z,17.30
2018-11-13T18:35:42.712Z,16.80
2018-11-13T18:38:12.465Z,17.43
2018-11-13T18:40:40.602Z,17.00
2018-11-13T18:43:08.792Z,16.93
2018-11-13T18:45:38.447Z,18.20
2018-11-13T18:48:06.997Z,18.40
2018-11-13T18:50:37.708Z,17.47
2018-11-13T18:53:06.061Z,17.40
2018-11-13T18:55:35.180Z,18.07
2018-11-13T18:58:03.523Z,18.40
2018-11-13T19:00:33.096Z,17.53
2018-11-13T19:03:02.610Z,17.90
2018-11-13T19:05:30.879Z,16.77
2018-11-13T19:07:59.483Z,16.50
2018-11-13T19:10:35.024Z,16.93
2018-11-13T19:13:04.591Z,16.70
2018-11-13T19:15:34.470Z,15.80
2018-11-13T19:18:02.626Z,15.50
2018-11-13T19:20:31.149Z,16.60
2018-11-13T19:22:59.507Z,16.37
2018-11-13T19:25:28.984Z,16.67
2018-11-13T19:27:57.833Z,17.00
2018-11-13T19:30:26.009Z,16.03
2018-11-13T19:32:54.192Z,16.20
2018-11-13T19:35:22.779Z,15.80
2018-11-13T19:37:51.947Z,16.60
2018-11-13T19:40:21.923Z,16.50
2018-11-13T19:42:50.897Z,16.50
2018-11-13T19:45:19.461Z,17.10
2018-11-13T19:47:47.592Z,16.37
2018-11-13T19:50:18.300Z,16.80
2018-11-13T19:52:46.560Z,16.87
2018-11-13T19:55:15.691Z,16.53
2018-11-13T19:57:44.647Z,15.90
2018-11-13T20:00:17.845Z,16.50
2018-11-13T20:02:46.562Z,16.20
2018-11-13T20:05:14.789Z,16.17
2018-11-13T20:07:43.048Z,16.50
2018-11-13T20:10:15.439Z,15.73
2018-11-13T20:12:44.569Z,15.80
2018-11-13T20:15:13.187Z,15.47
2018-11-13T20:17:41.392Z,15.60
2018-11-13T20:20:13.325Z,16.07
2018-11-13T20:22:41.517Z,15.87
2018-11-13T20:25:12.823Z,16.20
2018-11-13T20:27:41.276Z,15.60
2018-11-13T20:30:13.337Z,15.23
2018-11-13T20:32:41.515Z,15.00
2018-11-13T20:35:10.550Z,15.50
2018-11-13T20:37:38.824Z,15.40
2018-11-13T20:40:08.773Z,15.00
2018-11-13T20:42:36.958Z,16.00
2018-11-13T20:45:06.427Z,15.70
2018-11-13T20:47:34.609Z,14.93
2018-11-13T20:50:02.931Z,15.03
2018-11-13T20:52:31.088Z,15.80
2018-11-13T20:55:00.349Z,15.50
2018-11-13T20:57:28.944Z,14.70
2018-11-13T20:59:57.308Z,14.80
2018-11-13T21:02:25.590Z,15.07
2018-11-13T21:04:53.873Z,14.70
2018-11-13T21:07:22.286Z,15.47
2018-11-13T21:09:51.014Z,14.63
2018-11-13T21:12:18.720Z,14.47
2018-11-13T21:14:47.544Z,14.53
2018-11-13T21:17:15.958Z,14.20
2018-11-13T21:19:44.060Z,15.67
2018-11-13T21:22:12.626Z,15.23
2018-11-13T21:24:42.098Z,14.90
2018-11-13T21:27:10.114Z,15.70
2018-11-13T21:29:38.299Z,14.93
2018-11-13T21:32:07.491Z,14.93
2018-11-13T21:34:35.700Z,14.60
2018-11-13T21:37:03.869Z,15.37
2018-11-13T21:39:32.031Z,15.40
2018-11-13T21:42:00.242Z,18.10
2018-11-13T21:44:28.346Z,17.70
2018-11-13T21:46:56.524Z,16.47
2018-11-13T21:49:24.914Z,16.60
2018-11-13T21:51:53.168Z,16.07
2018-11-13T21:54:21.489Z,14.70
2018-11-13T21:56:49.652Z,16.43
2018-11-13T21:59:17.876Z,15.73
2018-11-13T22:01:46.149Z,14.87
2018-11-13T22:04:14.612Z,15.30
2018-11-13T22:06:44.835Z,16.67
2018-11-13T22:09:13.176Z,16.10
2018-11-13T22:11:41.328Z,15.90
2018-11-13T22:14:09.516Z,15.60
2018-11-13T22:16:37.754Z,15.73
2018-11-13T22:19:05.891Z,16.13
2018-11-13T22:21:34.045Z,17.17
2018-11-13T22:24:02.273Z,16.20
2018-11-13T22:26:30.411Z,17.37
2018-11-13T22:28:58.753Z,16.20
2018-11-13T22:31:26.763Z,15.20
2018-11-13T22:33:54.970Z,15.80
2018-11-13T22:36:23.093Z,18.47
2018-11-13T22:38:51.266Z,16.23
2018-11-13T22:41:19.507Z,16.90
2018-11-13T22:43:47.631Z,16.80
2018-11-13T22:46:15.833Z,16.23
2018-11-13T22:48:45.312Z,16.10
2018-11-13T22:51:13.387Z,15.33
2018-11-13T22:53:41.501Z,15.67
2018-11-13T22:56:09.590Z,16.27
2018-11-13T22:58:37.690Z,17.47
2018-11-13T23:01:06.083Z,16.30
2018-11-13T23:03:34.174Z,16.33
2018-11-13T23:06:02.280Z,17.27
2018-11-13T23:08:30.369Z,15.90
2018-11-13T23:11:02.722Z,16.57
2018-11-13T23:13:30.793Z,15.43
2018-11-13T23:15:58.904Z,16.73
2018-11-13T23:18:27.031Z,16.00
2018-11-13T23:20:55.124Z,17.00
2018-11-13T23:23:23.221Z,17.63
2018-11-13T23:25:51.416Z,15.47
2018-11-13T23:28:19.569Z,15.93
2018-11-13T23:30:47.861Z,16.67
2018-11-13T23:33:15.938Z,17.57
2018-11-13T23:35:44.118Z,16.50
2018-11-13T23:38:12.300Z,16.87
2018-11-13T23:40:40.448Z,17.60
2018-11-13T23:43:08.617Z,16.70
2018-11-13T23:47:01.890Z,15.70
2018-11-13T23:49:30.305Z,16.40
2018-11-13T23:51:58.450Z,16.57
2018-11-13T23:54:26.720Z,15.17
2018-11-13T23:56:54.887Z,16.67
2018-11-13T23:59:23.130Z,16.03
